createdAt,value
2022-10-19T00:01:13.334Z,5.50
2022-10-19T00:03:42.317Z,5.50
2022-10-19T00:06:16.426Z,5.20
2022-10-19T00:08:44.541Z,5.50
2022-10-19T00:11:12.760Z,5.50
2022-10-19T00:13:40.824Z,6.20
2022-10-19T00:16:12.150Z,5.90
2022-10-19T00:18:41.121Z,5.80
2022-10-19T00:21:10.684Z,7.00
2022-10-19T00:23:38.626Z,6.00
2022-10-19T00:26:07.182Z,5.00
2022-10-19T00:28:35.302Z,5.40
2022-10-19T00:31:06.305Z,5.20
2022-10-19T00:33:34.523Z,5.60
2022-10-19T00:36:02.210Z,5.00
2022-10-19T00:38:29.912Z,5.00
2022-10-19T00:40:57.478Z,5.10
2022-10-19T00:43:30.117Z,5.40
2022-10-19T00:45:57.796Z,4.30
2022-10-19T00:48:30.257Z,5.00
2022-10-19T00:51:00.240Z,4.30
2022-10-19T00:53:31.041Z,4.50
2022-10-19T00:56:03.307Z,4.70
2022-10-19T00:58:30.886Z,4.80
2022-10-19T01:01:03.091Z,4.80
2022-10-19T01:03:30.892Z,5.00
2022-10-19T01:06:00.165Z,5.10
2022-10-19T01:08:28.318Z,5.00
2022-10-19T01:11:19.399Z,5.10
2022-10-19T01:14:02.505Z,3.70
2022-10-19T01:16:58.729Z,3.40
2022-10-19T01:19:54.339Z,4.10
2022-10-19T01:22:59.066Z,4.70
2022-10-19T01:25:47.737Z,4.40
2022-10-19T01:28:40.244Z,4.30
2022-10-19T01:31:29.612Z,5.00
2022-10-19T01:34:10.747Z,5.50
2022-10-19T01:37:02.411Z,4.60
2022-10-19T01:39:49.792Z,4.50
2022-10-19T01:42:30.425Z,4.70
2022-10-19T01:45:07.035Z,5.00
2022-10-19T01:47:41.295Z,5.30
2022-10-19T01:50:17.957Z,6.20
2022-10-19T01:55:16.141Z,5.10
2022-10-19T01:57:48.164Z,4.90
2022-10-19T02:00:17.219Z,4.50
2022-10-19T02:02:48.468Z,5.30
2022-10-19T02:05:20.212Z,5.60
2022-10-19T02:07:55.157Z,5.30
2022-10-19T02:10:25.083Z,5.00
2022-10-19T02:12:55.841Z,5.50
2022-10-19T02:15:27.704Z,4.90
2022-10-19T02:18:03.297Z,5.40
2022-10-19T02:20:31.180Z,6.00
2022-10-19T02:22:58.751Z,6.20
2022-10-19T02:25:26.842Z,6.30
2022-10-19T02:27:54.559Z,6.20
2022-10-19T02:30:22.376Z,5.80
2022-10-19T02:32:51.147Z,6.40
2022-10-19T02:35:19.118Z,6.30
2022-10-19T02:37:46.676Z,6.90
2022-10-19T02:40:14.712Z,6.80
2022-10-19T02:42:50.645Z,7.00
2022-10-19T02:45:23.686Z,5.50
2022-10-19T02:47:57.421Z,5.40
2022-10-19T02:50:25.495Z,5.30
2022-10-19T02:52:53.151Z,5.40
2022-10-19T02:55:20.860Z,3.90
2022-10-19T02:57:48.441Z,4.50
2022-10-19T03:00:16.271Z,4.10
2022-10-19T03:02:44.179Z,4.20
2022-10-19T03:05:11.850Z,5.20
2022-10-19T03:07:39.498Z,4.90
2022-10-19T03:10:07.674Z,4.90
2022-10-19T03:12:35.241Z,4.40
2022-10-19T03:15:03.277Z,4.50
2022-10-19T03:17:31.226Z,4.90
2022-10-19T03:19:59.138Z,4.70
2022-10-19T03:22:26.761Z,5.10
2022-10-19T03:24:54.315Z,4.80
2022-10-19T03:27:21.919Z,4.70
2022-10-19T03:29:50.183Z,4.20
2022-10-19T03:32:17.872Z,4.90
2022-10-19T03:34:45.520Z,4.20
2022-10-19T03:37:15.061Z,4.80
2022-10-19T03:39:43.015Z,4.30
2022-10-19T03:42:10.626Z,4.20
2022-10-19T03:44:38.219Z,4.30
2022-10-19T03:47:05.828Z,4.10
2022-10-19T03:49:34.675Z,3.80
2022-10-19T03:52:04.655Z,4.40
2022-10-19T03:54:32.399Z,4.70
2022-10-19T03:56:59.992Z,4.90
2022-10-19T03:59:27.765Z,4.60
2022-10-19T04:01:55.467Z,4.70
2022-10-19T04:04:23.159Z,4.70
2022-10-19T04:06:53.093Z,4.70
2022-10-19T04:09:22.376Z,4.90
2022-10-19T04:11:50.379Z,4.10
2022-10-19T04:14:32.914Z,3.90
2022-10-19T04:17:07.134Z,3.50
2022-10-19T04:19:34.926Z,3.70
2022-10-19T04:22:03.300Z,3.70
2022-10-19T04:24:30.953Z,3.50
2022-10-19T04:26:58.535Z,3.50
2022-10-19T04:29:29.876Z,3.40
2022-10-19T04:31:57.955Z,4.00
2022-10-19T04:34:25.574Z,3.60
2022-10-19T04:36:53.886Z,4.00
2022-10-19T04:39:21.655Z,3.90
2022-10-19T04:41:49.304Z,4.60
2022-10-19T04:44:17.024Z,4.80
2022-10-19T04:46:44.667Z,4.20
2022-10-19T04:49:15.204Z,3.90
2022-10-19T04:51:45.694Z,3.50
2022-10-19T04:54:13.453Z,4.00
2022-10-19T04:56:41.213Z,4.00
2022-10-19T04:59:10.048Z,3.90
2022-10-19T05:01:38.189Z,3.40
2022-10-19T05:04:05.743Z,3.60
2022-10-19T05:06:35.814Z,3.80
2022-10-19T05:09:03.796Z,3.10
2022-10-19T05:11:31.443Z,3.40
2022-10-19T05:14:01.385Z,3.20
2022-10-19T05:16:29.005Z,2.80
2022-10-19T05:18:58.599Z,2.70
2022-10-19T05:21:31.107Z,2.50
2022-10-19T05:24:02.574Z,3.00
2022-10-19T05:26:32.568Z,2.40
2022-10-19T05:29:02.624Z,2.60
2022-10-19T05:31:33.129Z,2.40
2022-10-19T05:34:04.246Z,3.10
2022-10-19T05:36:40.081Z,2.90
2022-10-19T05:39:13.165Z,3.30
2022-10-19T05:41:43.884Z,2.80
2022-10-19T05:44:15.951Z,2.90
2022-10-19T05:46:47.067Z,2.90
2022-10-19T05:49:16.854Z,2.90
2022-10-19T05:51:47.653Z,3.00
2022-10-19T05:54:21.023Z,3.00
2022-10-19T05:56:57.323Z,3.00
2022-10-19T05:59:31.750Z,2.50
2022-10-19T06:02:10.903Z,2.80
2022-10-19T06:09:52.516Z,2.90
2022-10-19T06:12:11.952Z,3.30
2022-10-19T06:13:15.292Z,3.20
2022-10-19T06:16:42.015Z,2.80
2022-10-19T06:19:55.140Z,2.70
2022-10-19T06:49:01.594Z,4.10
2022-10-19T06:51:34.721Z,3.30
2022-10-19T06:54:08.582Z,3.10
2022-10-19T06:56:43.763Z,3.70
2022-10-19T06:59:23.076Z,2.90
2022-10-19T07:01:59.417Z,2.70
2022-10-19T07:38:46.615Z,2.70
2022-10-19T07:45:09.790Z,3.20
2022-10-19T07:48:49.757Z,2.80
2022-10-19T08:56:49.245Z,4.00
2022-10-19T09:00:26.858Z,3.80
2022-10-19T09:08:57.860Z,4.20
2022-10-19T09:19:05.437Z,4.70
2022-10-19T09:27:06.657Z,4.30
2022-10-19T09:30:23.115Z,4.30
2022-10-19T09:33:03.629Z,4.30
2022-10-19T09:35:46.383Z,4.00
2022-10-19T09:38:39.649Z,4.80
2022-10-19T09:41:43.018Z,4.60
2022-10-19T09:44:39.500Z,4.90
2022-10-19T09:47:49.165Z,5.10
2022-10-19T09:51:19.027Z,5.20
2022-10-19T09:53:59.247Z,5.60
2022-10-19T09:56:43.286Z,5.00
2022-10-19T09:59:25.565Z,5.20
2022-10-19T10:02:35.978Z,4.20
2022-10-19T10:22:00.054Z,3.70
2022-10-19T10:24:54.925Z,4.10
2022-10-19T10:27:38.523Z,4.20
2022-10-19T10:30:09.214Z,3.90
2022-10-19T10:32:52.963Z,4.60
2022-10-19T10:35:34.104Z,8.10
2022-10-19T10:38:19.402Z,4.20
2022-10-19T10:45:00.691Z,4.40
2022-10-19T10:47:38.974Z,4.80
2022-10-19T10:50:21.042Z,4.70
2022-10-19T10:53:28.972Z,4.60
2022-10-19T10:56:00.274Z,5.60
2022-10-19T10:58:50.742Z,5.00
2022-10-19T11:02:19.494Z,4.10
2022-10-19T12:44:37.771Z,6.50
2022-10-19T12:47:35.580Z,4.80
2022-10-19T12:50:15.639Z,5.30
2022-10-19T12:53:27.885Z,5.10
2022-10-19T13:01:52.588Z,5.00
2022-10-19T13:04:34.088Z,5.20
2022-10-19T13:07:09.965Z,5.50
2022-10-19T13:09:45.994Z,5.10
2022-10-19T13:13:14.278Z,5.70
2022-10-19T13:15:50.807Z,5.40
2022-10-19T13:18:59.413Z,5.30
2022-10-19T13:21:44.491Z,5.60
2022-10-19T13:24:30.751Z,5.90
2022-10-19T13:27:26.222Z,5.00
2022-10-19T13:29:57.441Z,5.10
2022-10-19T13:32:46.482Z,5.30
2022-10-19T13:35:53.940Z,5.60
2022-10-19T13:39:16.310Z,5.30
2022-10-19T13:42:37.253Z,5.20
2022-10-19T13:45:37.277Z,5.40
2022-10-19T13:48:48.163Z,5.80
2022-10-19T13:51:45.974Z,5.70
2022-10-19T13:54:46.947Z,5.50
2022-10-19T13:57:54.161Z,5.90
2022-10-19T14:00:25.671Z,6.10
2022-10-19T14:03:31.847Z,5.30
2022-10-19T14:06:16.750Z,5.90
2022-10-19T14:09:09.612Z,6.00
2022-10-19T14:11:56.160Z,6.70
2022-10-19T14:14:24.306Z,6.80
2022-10-19T14:16:59.755Z,6.40
2022-10-19T14:19:33.396Z,7.50
2022-10-19T14:22:16.719Z,7.80
2022-10-19T14:24:43.321Z,7.80
2022-10-19T14:27:37.201Z,8.00
2022-10-19T14:30:24.325Z,8.60
2022-10-19T14:32:56.803Z,7.90
2022-10-19T14:35:32.354Z,7.60
2022-10-19T14:38:08.599Z,6.60
2022-10-19T14:40:40.250Z,7.40
2022-10-19T14:43:26.448Z,7.20
2022-10-19T14:46:09.940Z,11.60
2022-10-19T14:48:44.811Z,7.00
2022-10-19T14:51:23.785Z,7.00
2022-10-19T14:53:56.266Z,7.30
2022-10-19T14:56:33.862Z,6.90
2022-10-19T14:59:10.915Z,7.20
2022-10-19T15:01:37.551Z,7.80
2022-10-19T15:04:04.270Z,7.30
2022-10-19T15:06:39.708Z,7.50
2022-10-19T15:09:12.089Z,7.70
2022-10-19T15:11:49.431Z,7.80
2022-10-19T15:14:22.745Z,7.50
2022-10-19T15:16:53.546Z,7.00
2022-10-19T15:19:27.572Z,6.70
2022-10-19T15:22:12.112Z,6.50
2022-10-19T15:24:40.029Z,6.50
2022-10-19T15:27:10.241Z,6.80
2022-10-19T15:29:36.993Z,6.80
2022-10-19T15:32:21.839Z,5.80
2022-10-19T15:34:54.188Z,7.30
2022-10-19T15:37:23.520Z,7.30
2022-10-19T15:39:52.235Z,6.70
2022-10-19T15:42:40.348Z,8.60
2022-10-19T15:45:27.387Z,8.40
2022-10-19T15:48:15.126Z,7.30
2022-10-19T15:50:47.723Z,7.30
2022-10-19T15:53:15.045Z,7.00
2022-10-19T15:55:41.532Z,7.80
2022-10-19T15:58:09.971Z,6.90
2022-10-19T16:00:36.449Z,7.50
2022-10-19T16:03:04.060Z,8.30
2022-10-19T16:05:35.053Z,9.40
2022-10-19T16:08:01.520Z,10.90
2022-10-19T16:10:28.561Z,9.80
2022-10-19T16:12:54.792Z,10.00
2022-10-19T16:15:22.582Z,11.90
2022-10-19T16:17:52.340Z,11.40
2022-10-19T16:20:19.408Z,11.30
2022-10-19T16:22:47.085Z,11.10
2022-10-19T16:25:13.831Z,9.60
2022-10-19T16:27:40.380Z,8.70
2022-10-19T16:30:07.507Z,9.90
2022-10-19T16:32:34.207Z,10.00
2022-10-19T16:35:00.409Z,10.20
2022-10-19T16:37:26.982Z,9.40
2022-10-19T16:39:53.224Z,9.90
2022-10-19T16:42:19.820Z,8.90
2022-10-19T16:44:45.993Z,9.80
2022-10-19T16:47:13.155Z,11.10
2022-10-19T16:49:39.341Z,9.30
2022-10-19T16:54:32.111Z,8.40
2022-10-19T16:56:58.306Z,8.20
2022-10-19T16:59:24.622Z,9.00
2022-10-19T17:01:50.975Z,8.80
2022-10-19T17:04:17.296Z,8.60
2022-10-19T17:06:43.505Z,9.60
2022-10-19T17:11:56.483Z,8.90
2022-10-19T17:14:22.696Z,9.00
2022-10-19T17:16:48.901Z,8.60
2022-10-19T17:19:15.194Z,9.10
2022-10-19T17:21:41.474Z,7.90
2022-10-19T17:24:13.835Z,7.80
2022-10-19T17:26:45.034Z,8.30
2022-10-19T17:29:11.811Z,8.10
2022-10-19T17:31:39.821Z,9.30
2022-10-19T17:34:07.671Z,8.50
2022-10-19T17:36:37.938Z,8.50
2022-10-19T17:39:08.694Z,10.10
2022-10-19T17:41:35.125Z,10.60
2022-10-19T17:44:04.316Z,12.00
2022-10-19T17:46:33.143Z,10.90
2022-10-19T17:48:59.834Z,11.80
2022-10-19T17:51:28.746Z,10.00
2022-10-19T17:53:57.459Z,10.00
2022-10-19T17:56:24.744Z,9.40
2022-10-19T17:58:51.396Z,9.60
2022-10-19T18:01:20.202Z,9.30
2022-10-19T18:03:47.564Z,10.20
2022-10-19T18:06:16.376Z,10.50
2022-10-19T18:08:46.634Z,9.90
2022-10-19T18:11:17.155Z,9.20
2022-10-19T18:13:43.462Z,9.70
2022-10-19T18:16:13.564Z,10.30
2022-10-19T18:18:42.510Z,9.60
2022-10-19T18:21:14.137Z,9.40
2022-10-19T18:23:40.417Z,8.40
2022-10-19T18:26:10.461Z,9.00
2022-10-19T18:28:37.200Z,9.00
2022-10-19T18:31:06.515Z,10.10
2022-10-19T18:33:33.223Z,9.30
2022-10-19T18:35:59.662Z,9.80
2022-10-19T18:38:25.994Z,9.50
2022-10-19T18:40:52.652Z,9.60
2022-10-19T18:43:18.896Z,9.70
2022-10-19T18:45:53.882Z,9.00
2022-10-19T18:48:20.736Z,8.90
2022-10-19T18:50:47.408Z,8.30
2022-10-19T18:53:13.955Z,9.40
2022-10-19T18:55:41.136Z,8.70
2022-10-19T18:58:08.273Z,8.70
2022-10-19T19:00:34.637Z,8.20
2022-10-19T19:03:01.034Z,8.40
2022-10-19T19:05:27.404Z,8.50
2022-10-19T19:07:55.276Z,8.00
2022-10-19T19:10:21.543Z,8.10
2022-10-19T19:12:49.904Z,7.90
2022-10-19T19:15:16.939Z,8.40
2022-10-19T19:17:43.271Z,7.50
2022-10-19T19:20:09.751Z,7.20
2022-10-19T19:22:36.583Z,7.60
2022-10-19T19:25:03.714Z,7.40
2022-10-19T19:27:31.925Z,6.70
2022-10-19T19:30:00.426Z,7.00
2022-10-19T19:32:26.955Z,7.00
2022-10-19T19:34:54.884Z,7.10
2022-10-19T19:37:21.446Z,6.50
2022-10-19T19:39:47.792Z,6.50
2022-10-19T19:42:14.117Z,5.90
2022-10-19T19:44:40.300Z,6.50
2022-10-19T19:47:07.671Z,7.00
2022-10-19T19:49:33.891Z,6.80
2022-10-19T19:52:00.232Z,7.30
2022-10-19T19:54:26.496Z,6.20
2022-10-19T19:56:53.197Z,4.80
2022-10-19T19:59:19.837Z,4.60
2022-10-19T20:01:46.284Z,5.10
2022-10-19T20:04:12.603Z,4.70
2022-10-19T20:06:39.999Z,4.90
2022-10-19T20:09:07.987Z,4.90
2022-10-19T20:11:36.200Z,4.60
2022-10-19T20:14:06.075Z,5.00
2022-10-19T20:16:32.862Z,5.00
2022-10-19T20:19:10.193Z,4.90
2022-10-19T20:21:37.435Z,5.50
2022-10-19T20:24:04.192Z,4.70
2022-10-19T20:26:30.837Z,5.30
2022-10-19T20:28:57.459Z,4.70
2022-10-19T20:31:24.667Z,4.30
2022-10-19T20:33:51.070Z,4.90
2022-10-19T20:36:21.058Z,3.90
2022-10-19T20:38:50.483Z,4.30
2022-10-19T20:41:18.353Z,4.30
2022-10-19T20:43:45.519Z,4.40
2022-10-19T20:46:17.085Z,4.10
2022-10-19T20:48:44.729Z,4.20
2022-10-19T20:51:15.930Z,4.30
2022-10-19T20:53:45.621Z,3.80
2022-10-19T20:56:15.619Z,3.80
2022-10-19T20:58:43.096Z,3.80
2022-10-19T21:01:13.969Z,3.70
2022-10-19T21:03:46.297Z,3.40
2022-10-19T21:06:12.541Z,3.20
2022-10-19T21:08:39.106Z,3.30
2022-10-19T21:11:24.453Z,3.30
2022-10-19T21:13:54.133Z,3.40
2022-10-19T21:16:22.447Z,3.40
2022-10-19T21:18:49.906Z,3.00
2022-10-19T21:21:21.346Z,3.30
2022-10-19T21:23:50.688Z,2.80
2022-10-19T21:26:20.355Z,2.80
2022-10-19T21:28:48.800Z,2.90
2022-10-19T21:31:17.123Z,3.10
2022-10-19T21:33:44.379Z,2.80
2022-10-19T21:36:12.302Z,2.80
2022-10-19T21:38:39.004Z,2.70
2022-10-19T21:41:08.085Z,2.70
2022-10-19T21:43:34.730Z,2.80
2022-10-19T21:46:05.099Z,3.20
2022-10-19T21:48:32.560Z,3.20
2022-10-19T21:50:59.709Z,2.60
2022-10-19T21:53:28.605Z,2.50
2022-10-19T21:55:58.763Z,2.90
2022-10-19T21:58:25.104Z,3.00
2022-10-19T22:00:51.548Z,3.20
2022-10-19T22:03:18.328Z,2.60
2022-10-19T22:05:51.914Z,2.80
2022-10-19T22:08:18.350Z,3.00
2022-10-19T22:10:44.701Z,2.70
2022-10-19T22:13:11.426Z,3.10
2022-10-19T22:15:39.400Z,2.20
2022-10-19T22:18:06.641Z,2.80
2022-10-19T22:20:35.543Z,2.30
2022-10-19T22:23:02.658Z,2.80
2022-10-19T22:25:31.053Z,2.30
2022-10-19T22:27:57.598Z,2.30
2022-10-19T22:30:23.990Z,2.40
2022-10-19T22:32:50.482Z,2.80
2022-10-19T22:35:16.912Z,2.60
2022-10-19T22:37:43.340Z,2.80
2022-10-19T22:40:10.037Z,3.20
2022-10-19T22:43:27.670Z,2.40
2022-10-19T22:46:13.545Z,1.90
2022-10-19T22:48:41.536Z,2.40
2022-10-19T22:51:07.903Z,2.70
2022-10-19T22:53:34.200Z,3.10
2022-10-19T22:56:00.939Z,2.70
2022-10-19T22:58:27.205Z,2.70
2022-10-19T23:01:03.418Z,2.70
2022-10-19T23:03:30.109Z,3.10
2022-10-19T23:05:56.742Z,3.20
2022-10-19T23:08:23.475Z,2.80
2022-10-19T23:10:49.715Z,3.00
2022-10-19T23:13:16.463Z,3.50
2022-10-19T23:15:44.046Z,3.40
2022-10-19T23:18:11.182Z,2.90
2022-10-19T23:20:37.612Z,3.30
2022-10-19T23:23:04.054Z,2.50
2022-10-19T23:28:01.707Z,2.00
2022-10-19T23:30:28.208Z,2.10
2022-10-19T23:32:54.600Z,2.60
2022-10-19T23:35:20.885Z,2.50
2022-10-19T23:37:47.179Z,2.20
2022-10-19T23:40:13.759Z,2.70
2022-10-19T23:42:40.105Z,2.20
2022-10-19T23:45:06.866Z,2.40
2022-10-19T23:47:33.399Z,2.50
2022-10-19T23:50:00.103Z,2.50
2022-10-19T23:52:26.433Z,2.30
2022-10-19T23:54:52.639Z,2.00
2022-10-19T23:57:19.434Z,1.80
2022-10-19T23:59:45.915Z,1.90
